»·PEaware :: N381PS KSAN-KCNO

N381PS :: KSAN-KCNO

FLIGHT INFORMATION

Flight Status: Arrived
Operator: Privately registered:
United States
More flights under this callsign
Pilot: Luis B. (14232)
Aircraft: Unknown
(DA62)
More flights by this aircraft type
Origin: KSAN San Diego Intl-Lindbergh
United States
Destination: KCNO Chino
United States
More flights between these airports :: More routes between these airports
Route: OCN V23 DANAH V363 POXKU V8 PDZ
File this flight plan on PilotEdge
Remarks: TEC route SANP19
Altitude:
(Current/Filed)
6,000ft
Speed:
(Current/Filed)
170kts
Departed: 28-Sep-18 09:14 PM
Arrived: 28-Sep-18 09:57 PM
Distance/Time
Traveled:
78nm/0:43
Distance/Time
To Go:
Arrived

Flight Plot

Page will automatically refresh every two minutes.


Map Options




Map Legend


Flown Route
Filed Route
Departure Airport
Arrival Airport
Navaid (VOR, NDB)
Fix

Horizontal Profiles

Position Reports

Time Latitude Longitude Heading Altitude Ground
Speed
28-Sep-18 21:06 32.732364 -117.176435 194 18ft 0kts
28-Sep-18 21:07 32.732364 -117.176435 194 18ft 0kts
28-Sep-18 21:08 32.732364 -117.176435 194 18ft 0kts
28-Sep-18 21:09 32.732364 -117.176435 194 18ft 0kts
28-Sep-18 21:10 32.732364 -117.176435 194 18ft 0kts
28-Sep-18 21:11 32.732364 -117.176435 194 18ft 0kts
28-Sep-18 21:12 32.732340 -117.176442 194 18ft 0kts
28-Sep-18 21:13 32.731614 -117.176667 184 18ft 5kts
28-Sep-18 21:14 32.731096 -117.175668 173 18ft 0kts
28-Sep-18 21:15 32.731096 -117.175668 173 18ft 0kts
28-Sep-18 21:16 32.730843 -117.178466 285 18ft 61kts
28-Sep-18 21:17 32.739527 -117.206965 317 656ft 97kts
28-Sep-18 21:18 32.760328 -117.225439 330 1511ft 93kts
28-Sep-18 21:19 32.785881 -117.245760 322 2304ft 112kts
28-Sep-18 21:20 32.817387 -117.258617 338 3140ft 126kts
28-Sep-18 21:21 32.851164 -117.271276 338 3953ft 130kts
28-Sep-18 21:22 32.886504 -117.284541 339 4803ft 136kts
28-Sep-18 21:23 32.923203 -117.298277 340 5655ft 141kts
28-Sep-18 21:24 32.963364 -117.313282 341 6020ft 171kts
28-Sep-18 21:25 33.010948 -117.331013 341 6010ft 181kts
28-Sep-18 21:26 33.058718 -117.348894 342 6010ft 179kts
28-Sep-18 21:27 33.104308 -117.365968 342 6009ft 179kts
28-Sep-18 21:28 33.149724 -117.382939 342 6007ft 178kts
28-Sep-18 21:29 33.197079 -117.400690 341 5998ft 178kts
28-Sep-18 21:30 33.244170 -117.418641 333 5991ft 177kts
28-Sep-18 21:31 33.271767 -117.452814 305 6008ft 172kts
28-Sep-18 21:32 33.311261 -117.500147 313 6008ft 173kts
28-Sep-18 21:33 33.339952 -117.533734 313 6008ft 173kts
28-Sep-18 21:34 33.379924 -117.580761 313 6008ft 173kts
28-Sep-18 21:35 33.408547 -117.614511 313 6008ft 173kts
28-Sep-18 21:36 33.441528 -117.653477 311 6008ft 173kts
28-Sep-18 21:37 33.475420 -117.694128 312 5999ft 173kts
28-Sep-18 21:38 33.518616 -117.711714 0 6000ft 177kts
28-Sep-18 21:39 33.567803 -117.714740 353 6000ft 177kts
28-Sep-18 21:40 33.616634 -117.721487 351 6000ft 177kts
28-Sep-18 21:41 33.665368 -117.729278 351 6000ft 177kts
28-Sep-18 21:42 33.711759 -117.747879 337 6000ft 176kts
28-Sep-18 21:43 33.757579 -117.769300 336 6001ft 178kts
28-Sep-18 21:44 33.804753 -117.782569 2 6003ft 179kts
28-Sep-18 21:45 33.854342 -117.781238 2 5837ft 179kts
28-Sep-18 21:46 33.878586 -117.735130 74 5589ft 170kts
28-Sep-18 21:47 33.887874 -117.679878 85 5331ft 169kts
28-Sep-18 21:48 33.896678 -117.623831 77 5084ft 171kts
28-Sep-18 21:49 33.908494 -117.569256 76 4850ft 165kts
28-Sep-18 21:50 33.919907 -117.515460 76 4294ft 166kts
28-Sep-18 21:51 33.931036 -117.461789 76 4125ft 165kts
28-Sep-18 21:52 33.950765 -117.415617 9 3673ft 159kts
28-Sep-18 21:53 33.975585 -117.449210 290 3194ft 132kts
28-Sep-18 21:54 33.976843 -117.492783 269 2874ft 139kts
28-Sep-18 21:55 33.977529 -117.538554 271 2143ft 134kts
28-Sep-18 21:56 33.975794 -117.577372 274 1541ft 89kts
28-Sep-18 21:57 33.975595 -117.605258 271 1098ft 82kts
28-Sep-18 21:58 33.975816 -117.633441 269 637ft 82kts
28-Sep-18 21:59 33.976689 -117.644033 44 625ft 5kts
28-Sep-18 22:00 33.978876 -117.645122 63 630ft 8kts
28-Sep-18 22:01 33.978891 -117.643952 1 631ft 0kts
28-Sep-18 22:02 33.978891 -117.643952 1 631ft 0kts

Navigation Log

Ident Type
Flight plan parsing failed, navigation log unavailable